createdAt,value
2023-01-03T00:00:01.990Z,3.33
2023-01-03T00:02:34.564Z,3.30
2023-01-03T00:05:08.169Z,3.32
2023-01-03T00:07:40.485Z,3.36
2023-01-03T00:10:12.826Z,3.27
2023-01-03T00:12:45.259Z,3.28
2023-01-03T00:15:18.503Z,3.20
2023-01-03T00:17:52.058Z,3.20
2023-01-03T00:20:25.296Z,3.22
2023-01-03T00:22:59.237Z,3.24
2023-01-03T00:25:31.652Z,3.24
2023-01-03T00:28:04.475Z,3.22
2023-01-03T00:30:37.544Z,3.25
2023-01-03T00:33:09.921Z,3.29
2023-01-03T00:35:42.297Z,3.30
2023-01-03T00:38:14.649Z,3.30
2023-01-03T00:40:47.005Z,3.28
2023-01-03T00:43:31.070Z,3.28
2023-01-03T00:46:05.068Z,3.27
2023-01-03T00:48:38.461Z,3.31
2023-01-03T00:51:13.120Z,3.28
2023-01-03T00:53:47.753Z,3.30
2023-01-03T00:56:21.659Z,3.28
2023-01-03T00:58:54.914Z,3.22
2023-01-03T01:01:29.814Z,3.21
2023-01-03T01:04:05.189Z,3.09
2023-01-03T01:06:40.141Z,3.10
2023-01-03T01:09:15.470Z,3.18
2023-01-03T01:11:48.280Z,3.17
2023-01-03T01:14:22.706Z,3.16
2023-01-03T01:16:57.998Z,3.17
2023-01-03T01:19:37.742Z,3.13
2023-01-03T01:22:10.754Z,3.14
2023-01-03T01:24:43.170Z,3.10
2023-01-03T01:27:15.547Z,3.05
2023-01-03T01:29:48.009Z,2.99
2023-01-03T01:32:21.088Z,3.04
2023-01-03T01:34:53.404Z,3.01
2023-01-03T01:37:25.733Z,3.03
2023-01-03T01:39:58.076Z,3.01
2023-01-03T01:42:48.650Z,2.99
2023-01-03T01:45:21.095Z,2.96
2023-01-03T01:47:59.045Z,2.98
2023-01-03T01:50:37.483Z,2.95
2023-01-03T01:53:12.631Z,2.95
2023-01-03T01:55:50.861Z,2.94
2023-01-03T01:58:26.813Z,2.91
2023-01-03T02:00:59.424Z,2.88
2023-01-03T02:03:32.593Z,2.88
2023-01-03T02:06:08.089Z,2.84
2023-01-03T02:08:40.652Z,2.87
2023-01-03T02:11:27.626Z,2.89
2023-01-03T02:14:25.704Z,2.89
2023-01-03T02:17:06.576Z,2.92
2023-01-03T02:20:06.410Z,2.89
2023-01-03T02:23:21.301Z,2.89
2023-01-03T02:26:23.615Z,2.87
2023-01-03T02:29:19.561Z,2.80
2023-01-03T02:32:00.940Z,2.73
2023-01-03T02:34:41.311Z,2.68
2023-01-03T02:37:20.952Z,2.70
2023-01-03T02:40:01.317Z,2.64
2023-01-03T02:43:01.465Z,2.56
2023-01-03T02:45:47.967Z,2.59
2023-01-03T02:48:31.891Z,2.56
2023-01-03T02:51:10.534Z,2.57
2023-01-03T02:53:46.692Z,2.60
2023-01-03T02:56:23.959Z,2.61
2023-01-03T02:58:59.965Z,2.61
2023-01-03T03:01:35.254Z,2.58
2023-01-03T03:04:08.550Z,2.57
2023-01-03T03:06:47.311Z,2.48
2023-01-03T03:09:19.841Z,2.50
2023-01-03T03:12:12.325Z,2.51
2023-01-03T03:14:48.762Z,2.52
2023-01-03T03:17:27.974Z,2.48
2023-01-03T03:20:19.670Z,2.45
2023-01-03T03:23:16.528Z,2.50
2023-01-03T03:25:52.733Z,2.46
2023-01-03T03:28:35.069Z,2.40
2023-01-03T03:31:13.118Z,2.40
2023-01-03T03:33:48.903Z,2.41
2023-01-03T03:36:32.456Z,2.37
2023-01-03T03:39:28.810Z,2.36
2023-01-03T03:42:33.993Z,2.33
2023-01-03T03:45:15.864Z,2.33
2023-01-03T03:47:53.882Z,2.30
2023-01-03T03:50:30.827Z,2.35
2023-01-03T03:53:07.386Z,2.34
2023-01-03T03:55:44.237Z,2.37
2023-01-03T03:58:22.745Z,2.37
2023-01-03T04:00:56.655Z,2.42
2023-01-03T04:03:30.100Z,2.41
2023-01-03T04:06:09.648Z,2.39
2023-01-03T04:08:42.865Z,2.40
2023-01-03T04:11:15.259Z,2.39
2023-01-03T04:13:47.596Z,2.41
2023-01-03T04:16:19.913Z,2.44
2023-01-03T04:18:52.554Z,2.42
2023-01-03T04:21:25.097Z,2.42
2023-01-03T04:23:58.157Z,2.37
2023-01-03T04:26:30.530Z,2.38
2023-01-03T04:29:03.247Z,2.37
2023-01-03T04:31:35.633Z,2.35
2023-01-03T04:34:08.245Z,2.37
2023-01-03T04:36:40.579Z,2.35
2023-01-03T04:39:14.030Z,2.28
2023-01-03T04:41:46.381Z,2.28
2023-01-03T04:44:18.507Z,2.27
2023-01-03T04:46:53.055Z,2.26
2023-01-03T04:49:25.751Z,2.30
2023-01-03T04:51:58.100Z,2.32
2023-01-03T04:54:31.295Z,2.34
2023-01-03T04:57:03.805Z,2.34
2023-01-03T04:59:36.533Z,2.35
2023-01-03T05:02:08.993Z,2.34
2023-01-03T05:04:41.605Z,2.35
2023-01-03T05:07:13.980Z,2.35
2023-01-03T05:09:47.145Z,2.35
2023-01-03T05:12:19.683Z,2.34
2023-01-03T05:14:52.135Z,2.31
2023-01-03T05:17:24.468Z,2.29
2023-01-03T05:20:14.884Z,2.30
2023-01-03T05:23:05.457Z,2.27
2023-01-03T05:25:50.788Z,2.27
2023-01-03T05:28:23.859Z,2.21
2023-01-03T05:30:57.655Z,2.24
2023-01-03T05:33:30.179Z,2.17
2023-01-03T05:36:05.158Z,2.25
2023-01-03T05:38:38.183Z,2.18
2023-01-03T05:41:13.281Z,2.25
2023-01-03T05:43:45.702Z,2.25
2023-01-03T05:46:18.168Z,2.20
2023-01-03T05:48:50.510Z,2.14
2023-01-03T05:51:22.898Z,2.18
2023-01-03T05:53:55.249Z,2.18
2023-01-03T05:56:29.837Z,2.18
2023-01-03T05:59:02.287Z,2.14
2023-01-03T06:01:35.463Z,2.11
2023-01-03T06:04:08.135Z,2.11
2023-01-03T06:06:40.560Z,2.13
2023-01-03T06:09:12.888Z,2.10
2023-01-03T06:11:46.011Z,2.10
2023-01-03T06:14:19.350Z,2.00
2023-01-03T06:17:09.197Z,2.01
2023-01-03T06:19:41.550Z,1.98
2023-01-03T06:22:13.948Z,2.00
2023-01-03T06:24:46.290Z,2.07
2023-01-03T06:27:19.538Z,2.07
2023-01-03T06:29:51.845Z,2.08
2023-01-03T06:32:24.249Z,2.06
2023-01-03T06:34:56.627Z,2.08
2023-01-03T06:37:29.025Z,2.11
2023-01-03T06:40:01.498Z,2.09
2023-01-03T06:42:41.937Z,2.12
2023-01-03T06:45:32.696Z,2.17
2023-01-03T06:48:24.087Z,2.17
2023-01-03T06:51:25.787Z,2.14
2023-01-03T06:53:59.552Z,2.15
2023-01-03T06:56:31.900Z,2.17
2023-01-03T06:59:05.128Z,2.23
2023-01-03T07:01:38.666Z,2.24
2023-01-03T07:04:11.715Z,2.28
2023-01-03T07:06:44.420Z,2.24
2023-01-03T07:09:17.715Z,2.28
2023-01-03T07:11:50.274Z,2.28
2023-01-03T07:14:22.944Z,2.33
2023-01-03T07:16:55.279Z,2.31
2023-01-03T07:19:27.739Z,2.39
2023-01-03T07:22:00.136Z,2.45
2023-01-03T07:24:32.916Z,2.49
2023-01-03T07:27:05.286Z,2.53
2023-01-03T07:29:38.347Z,2.62
2023-01-03T07:32:10.697Z,2.66
2023-01-03T07:34:43.133Z,2.71
2023-01-03T07:37:15.448Z,2.77
2023-01-03T07:39:47.799Z,2.84
2023-01-03T07:42:37.955Z,2.95
2023-01-03T07:45:11.360Z,3.02
2023-01-03T07:47:44.094Z,3.09
2023-01-03T07:50:16.651Z,3.23
2023-01-03T07:52:48.908Z,3.30
2023-01-03T07:55:21.275Z,3.33
2023-01-03T07:57:53.582Z,3.46
2023-01-03T08:00:27.316Z,3.57
2023-01-03T08:02:59.766Z,3.66
2023-01-03T08:05:33.605Z,3.75
2023-01-03T08:08:06.533Z,3.86
2023-01-03T08:10:57.297Z,4.00
2023-01-03T08:13:29.623Z,4.11
2023-01-03T08:16:02.858Z,4.21
2023-01-03T08:18:35.212Z,4.37
2023-01-03T08:21:09.725Z,4.50
2023-01-03T08:23:42.741Z,4.62
2023-01-03T08:26:16.550Z,4.78
2023-01-03T08:28:48.861Z,4.92
2023-01-03T08:31:23.386Z,5.06
2023-01-03T08:34:00.821Z,5.19
2023-01-03T08:36:38.517Z,5.30
2023-01-03T08:39:14.165Z,5.47
2023-01-03T08:41:52.655Z,5.62
2023-01-03T08:44:25.974Z,5.76
2023-01-03T08:47:02.105Z,5.94
2023-01-03T08:49:34.583Z,6.07
2023-01-03T08:52:07.248Z,6.17
2023-01-03T08:54:40.623Z,6.29
2023-01-03T08:57:13.061Z,6.48
2023-01-03T08:59:45.415Z,6.65
2023-01-03T09:02:18.748Z,6.81
2023-01-03T09:04:51.261Z,6.96
2023-01-03T09:07:23.805Z,7.13
2023-01-03T09:09:56.111Z,7.24
2023-01-03T09:12:28.523Z,7.45
2023-01-03T09:15:00.856Z,7.66
2023-01-03T09:17:34.045Z,7.89
2023-01-03T09:20:07.783Z,8.09
2023-01-03T09:22:40.236Z,8.32
2023-01-03T09:25:12.567Z,8.49
2023-01-03T09:27:46.454Z,8.71
2023-01-03T09:30:19.483Z,8.95
2023-01-03T09:32:52.726Z,9.21
2023-01-03T09:35:25.140Z,9.46
2023-01-03T09:37:57.555Z,9.71
2023-01-03T09:40:30.796Z,9.94
2023-01-03T09:43:13.828Z,10.20
2023-01-03T09:45:50.141Z,10.41
2023-01-03T09:48:35.663Z,10.71
2023-01-03T09:51:30.757Z,10.86
2023-01-03T09:54:22.278Z,11.18
2023-01-03T09:57:12.945Z,11.48
2023-01-03T10:00:03.415Z,11.78
2023-01-03T10:03:12.343Z,12.01
2023-01-03T10:06:05.237Z,12.28
2023-01-03T10:08:56.237Z,12.51
2023-01-03T10:11:39.037Z,12.68
2023-01-03T10:14:28.586Z,12.95
2023-01-03T10:17:11.671Z,13.12
2023-01-03T10:20:08.003Z,13.32
2023-01-03T10:22:41.140Z,13.55
2023-01-03T10:25:17.128Z,13.74
2023-01-03T10:27:51.733Z,13.91
2023-01-03T10:30:36.848Z,14.08
2023-01-03T10:33:29.068Z,14.38
2023-01-03T10:36:01.499Z,14.48
2023-01-03T10:38:42.571Z,14.38
2023-01-03T10:41:21.326Z,14.53
2023-01-03T10:43:58.469Z,14.70
2023-01-03T10:46:31.527Z,14.86
2023-01-03T10:49:27.469Z,14.98
2023-01-03T10:52:09.165Z,15.14
2023-01-03T10:54:50.819Z,15.32
2023-01-03T10:57:38.498Z,15.39
2023-01-03T11:00:26.229Z,15.54
2023-01-03T11:03:11.481Z,15.78
2023-01-03T11:05:46.492Z,15.99
2023-01-03T11:08:21.894Z,16.20
2023-01-03T11:10:57.456Z,16.32
2023-01-03T11:13:34.411Z,16.45
2023-01-03T11:16:14.793Z,16.67
2023-01-03T11:18:59.482Z,16.59
2023-01-03T11:21:41.053Z,16.52
2023-01-03T11:24:26.958Z,16.28
2023-01-03T11:27:09.761Z,16.34
2023-01-03T11:30:05.947Z,16.42
2023-01-03T11:32:51.461Z,16.54
2023-01-03T11:35:39.537Z,16.49
2023-01-03T11:38:26.619Z,16.49
2023-01-03T11:41:11.744Z,16.70
2023-01-03T11:43:57.905Z,16.63
2023-01-03T11:46:42.334Z,16.64
2023-01-03T11:49:25.893Z,16.66
2023-01-03T11:52:17.573Z,16.56
2023-01-03T11:55:16.775Z,16.62
2023-01-03T11:58:02.460Z,16.78
2023-01-03T12:00:43.500Z,17.00
2023-01-03T12:03:28.130Z,16.87
2023-01-03T12:06:07.573Z,16.81
2023-01-03T12:09:05.471Z,16.60
2023-01-03T12:12:00.971Z,16.63
2023-01-03T12:14:39.742Z,16.68
2023-01-03T12:17:17.792Z,16.55
2023-01-03T12:19:56.826Z,16.50
2023-01-03T12:22:35.646Z,16.30
2023-01-03T12:25:18.515Z,16.51
2023-01-03T12:27:56.247Z,16.55
2023-01-03T12:30:37.816Z,16.37
2023-01-03T12:33:22.013Z,16.41
2023-01-03T12:36:01.352Z,16.28
2023-01-03T12:38:37.929Z,16.00
2023-01-03T12:41:25.090Z,15.81
2023-01-03T12:44:03.230Z,15.77
2023-01-03T12:46:40.865Z,15.71
2023-01-03T12:49:18.525Z,15.65
2023-01-03T12:51:51.124Z,15.67
2023-01-03T12:54:37.194Z,15.68
2023-01-03T12:57:24.936Z,15.46
2023-01-03T13:00:21.232Z,15.51
2023-01-03T13:02:58.058Z,15.27
2023-01-03T13:05:37.975Z,15.17
2023-01-03T13:08:31.038Z,14.90
2023-01-03T13:11:07.127Z,14.90
2023-01-03T13:13:49.405Z,14.80
2023-01-03T13:16:41.542Z,14.71
2023-01-03T13:19:40.586Z,14.57
2023-01-03T13:22:39.837Z,14.55
2023-01-03T13:25:38.682Z,14.39
2023-01-03T13:28:31.205Z,14.30
2023-01-03T13:31:47.082Z,14.21
2023-01-03T13:34:34.433Z,14.22
2023-01-03T13:37:25.335Z,14.36
2023-01-03T13:40:18.550Z,14.53
2023-01-03T13:43:02.963Z,14.30
2023-01-03T13:45:57.473Z,14.35
2023-01-03T13:48:38.325Z,14.27
2023-01-03T13:51:47.021Z,14.50
2023-01-03T13:54:56.863Z,14.57
2023-01-03T13:57:34.881Z,14.54
2023-01-03T14:00:19.057Z,14.57
2023-01-03T14:03:30.184Z,14.47
2023-01-03T14:06:36.172Z,14.25
2023-01-03T14:09:32.828Z,14.05
2023-01-03T14:12:41.436Z,14.12
2023-01-03T14:15:25.261Z,14.09
2023-01-03T14:18:07.087Z,14.06
2023-01-03T14:20:42.652Z,14.11
2023-01-03T14:23:57.702Z,14.14
2023-01-03T14:26:14.744Z,13.88
2023-01-03T14:28:49.730Z,13.58
2023-01-03T14:31:26.047Z,13.29
2023-01-03T14:34:00.281Z,13.22
2023-01-03T14:36:45.607Z,13.11
2023-01-03T14:42:03.906Z,13.18
2023-01-03T14:44:36.244Z,13.15
2023-01-03T14:47:17.305Z,13.15
2023-01-03T14:49:52.160Z,13.13
2023-01-03T14:52:30.195Z,13.05
2023-01-03T14:55:06.751Z,12.96
2023-01-03T14:57:42.706Z,12.91
2023-01-03T15:00:19.054Z,12.72
2023-01-03T15:02:53.645Z,12.79
2023-01-03T15:05:30.457Z,12.71
2023-01-03T15:08:10.039Z,12.61
2023-01-03T15:10:45.236Z,12.44
2023-01-03T15:13:22.194Z,12.25
2023-01-03T15:15:56.466Z,12.23
2023-01-03T15:18:32.309Z,12.23
2023-01-03T15:21:05.568Z,12.10
2023-01-03T15:23:40.034Z,12.06
2023-01-03T15:26:21.500Z,12.05
2023-01-03T15:28:56.186Z,11.99
2023-01-03T15:31:33.086Z,11.97
2023-01-03T15:34:14.917Z,11.88
2023-01-03T15:36:51.486Z,11.84
2023-01-03T15:39:28.884Z,11.73
2023-01-03T15:42:43.931Z,11.44
2023-01-03T15:45:18.811Z,11.12
2023-01-03T15:47:54.956Z,11.10
2023-01-03T15:50:40.027Z,10.96
2023-01-03T15:53:22.084Z,10.90
2023-01-03T15:55:58.994Z,10.77
2023-01-03T15:58:32.151Z,10.67
2023-01-03T16:01:06.391Z,10.51
2023-01-03T16:03:39.628Z,10.43
2023-01-03T16:06:12.737Z,10.10
2023-01-03T16:08:45.474Z,10.01
2023-01-03T16:11:20.837Z,9.90
2023-01-03T16:13:55.327Z,9.77
2023-01-03T16:16:31.968Z,9.77
2023-01-03T16:19:06.044Z,9.63
2023-01-03T16:21:39.148Z,9.23
2023-01-03T16:24:15.462Z,9.18
2023-01-03T16:26:47.991Z,8.99
2023-01-03T16:29:20.280Z,8.99
2023-01-03T16:31:52.749Z,8.62
2023-01-03T16:34:28.853Z,8.68
2023-01-03T16:37:09.600Z,8.61
2023-01-03T16:39:47.699Z,8.45
2023-01-03T16:42:26.582Z,7.98
2023-01-03T16:44:58.908Z,8.05
2023-01-03T16:47:34.315Z,7.97
2023-01-03T16:50:12.557Z,8.13
2023-01-03T16:52:47.834Z,8.03
2023-01-03T16:55:25.840Z,7.90
2023-01-03T16:57:58.707Z,7.89
2023-01-03T17:00:33.173Z,7.84
2023-01-03T17:03:05.702Z,7.81
2023-01-03T17:05:38.878Z,7.75
2023-01-03T17:08:20.310Z,7.80
2023-01-03T17:10:55.656Z,7.69
2023-01-03T17:13:31.913Z,7.73
2023-01-03T17:16:06.811Z,7.77
2023-01-03T17:18:41.457Z,7.70
2023-01-03T17:21:22.500Z,7.55
2023-01-03T17:24:00.376Z,7.34
2023-01-03T17:26:34.325Z,7.37
2023-01-03T17:29:11.152Z,7.29
2023-01-03T17:31:43.657Z,7.02
2023-01-03T17:34:21.879Z,7.06
2023-01-03T17:36:55.928Z,7.09
2023-01-03T17:39:29.065Z,7.14
2023-01-03T17:42:15.421Z,7.04
2023-01-03T17:45:10.289Z,7.16
2023-01-03T17:48:01.802Z,7.21
2023-01-03T17:50:34.295Z,7.20
2023-01-03T17:53:10.167Z,7.25
2023-01-03T17:55:44.222Z,7.21
2023-01-03T17:58:19.749Z,7.01
2023-01-03T18:00:52.110Z,7.04
2023-01-03T18:03:24.813Z,7.05
2023-01-03T18:05:58.093Z,7.11
2023-01-03T18:08:30.472Z,7.11
2023-01-03T18:11:06.620Z,7.10
2023-01-03T18:13:39.649Z,6.96
2023-01-03T18:16:14.994Z,7.02
2023-01-03T18:18:48.225Z,6.94
2023-01-03T18:21:22.775Z,6.81
2023-01-03T18:23:57.126Z,6.82
2023-01-03T18:26:33.721Z,6.84
2023-01-03T18:29:07.349Z,6.89
2023-01-03T18:31:39.824Z,6.93
2023-01-03T18:34:12.999Z,6.91
2023-01-03T18:36:49.532Z,6.54
2023-01-03T18:39:26.031Z,6.41
2023-01-03T18:42:19.223Z,6.43
2023-01-03T18:44:51.524Z,6.39
2023-01-03T18:47:24.620Z,6.31
2023-01-03T18:49:56.888Z,6.26
2023-01-03T18:52:32.857Z,6.09
2023-01-03T18:55:11.780Z,5.85
2023-01-03T18:57:46.106Z,5.88
2023-01-03T19:00:21.121Z,5.90
2023-01-03T19:02:54.134Z,5.54
2023-01-03T19:05:26.767Z,5.53
2023-01-03T19:07:59.694Z,5.65
2023-01-03T19:10:32.243Z,5.64
2023-01-03T19:13:05.765Z,5.51
2023-01-03T19:15:38.181Z,5.68
2023-01-03T19:18:10.618Z,5.81
2023-01-03T19:20:43.048Z,5.80
2023-01-03T19:23:21.920Z,5.77
2023-01-03T19:25:54.911Z,5.66
2023-01-03T19:28:28.340Z,5.70
2023-01-03T19:31:00.986Z,5.71
2023-01-03T19:33:33.424Z,5.79
2023-01-03T19:36:13.781Z,5.56
2023-01-03T19:38:46.221Z,5.64
2023-01-03T19:41:19.524Z,5.70
2023-01-03T19:43:52.842Z,5.61
2023-01-03T19:46:25.385Z,5.71
2023-01-03T19:48:57.829Z,5.71
2023-01-03T19:51:30.191Z,5.66
2023-01-03T19:54:02.586Z,5.70
2023-01-03T19:56:35.019Z,5.75
2023-01-03T19:59:19.163Z,5.44
2023-01-03T20:02:23.647Z,5.50
2023-01-03T20:04:44.321Z,5.57
2023-01-03T20:07:16.758Z,5.61
2023-01-03T20:09:49.212Z,5.37
2023-01-03T20:12:25.557Z,5.36
2023-01-03T20:15:04.626Z,5.28
2023-01-03T20:17:39.453Z,5.33
2023-01-03T20:20:12.560Z,5.27
2023-01-03T20:25:38.244Z,5.29
2023-01-03T20:28:16.756Z,5.09
2023-01-03T20:30:50.045Z,5.18
2023-01-03T20:33:22.673Z,5.07
2023-01-03T20:36:12.600Z,5.16
2023-01-03T20:38:48.771Z,5.16
2023-01-03T20:41:35.004Z,4.99
2023-01-03T20:44:07.671Z,5.04
2023-01-03T20:46:40.812Z,4.95
2023-01-03T20:49:16.598Z,5.03
2023-01-03T20:51:49.419Z,5.09
2023-01-03T20:54:22.397Z,5.06
2023-01-03T20:56:54.830Z,5.04
2023-01-03T20:59:28.510Z,5.08
2023-01-03T21:02:01.903Z,5.09
2023-01-03T21:04:34.382Z,4.89
2023-01-03T21:07:11.640Z,4.94
2023-01-03T21:09:44.326Z,4.93
2023-01-03T21:12:16.662Z,4.97
2023-01-03T21:14:49.013Z,5.02
2023-01-03T21:17:22.243Z,5.02
2023-01-03T21:19:54.556Z,5.09
2023-01-03T21:22:26.942Z,4.78
2023-01-03T21:25:01.234Z,4.91
2023-01-03T21:27:35.098Z,4.92
2023-01-03T21:30:09.136Z,4.95
2023-01-03T21:32:42.587Z,4.85
2023-01-03T21:35:16.809Z,4.88
2023-01-03T21:37:50.804Z,4.95
2023-01-03T21:40:25.224Z,5.02
2023-01-03T21:43:05.556Z,5.01
2023-01-03T21:45:40.207Z,5.04
2023-01-03T21:48:15.423Z,5.10
2023-01-03T21:50:49.391Z,5.07
2023-01-03T21:53:22.818Z,4.80
2023-01-03T21:55:55.162Z,4.80
2023-01-03T21:58:27.633Z,4.84
2023-01-03T22:01:09.551Z,4.48
2023-01-03T22:04:00.878Z,4.50
2023-01-03T22:06:34.387Z,4.40
2023-01-03T22:09:26.774Z,4.30
2023-01-03T22:11:59.109Z,4.42
2023-01-03T22:14:31.869Z,4.49
2023-01-03T22:17:04.198Z,4.61
2023-01-03T22:19:37.448Z,4.70
2023-01-03T22:22:10.107Z,4.82
2023-01-03T22:24:42.572Z,4.90
2023-01-03T22:27:16.099Z,4.97
2023-01-03T22:29:48.527Z,5.05
2023-01-03T22:32:22.650Z,5.09
2023-01-03T22:34:55.941Z,5.08
2023-01-03T22:37:28.313Z,5.07
2023-01-03T22:40:00.930Z,5.13
2023-01-03T22:42:33.760Z,4.99
2023-01-03T22:45:07.653Z,4.91
2023-01-03T22:47:39.946Z,4.95
2023-01-03T22:50:13.017Z,4.96
2023-01-03T22:52:45.382Z,4.94
2023-01-03T22:55:17.780Z,4.99
2023-01-03T22:57:50.095Z,4.94
2023-01-03T23:00:22.562Z,5.01
2023-01-03T23:02:54.909Z,4.95
2023-01-03T23:05:28.126Z,4.76
2023-01-03T23:08:00.910Z,4.39
2023-01-03T23:10:33.533Z,4.55
2023-01-03T23:13:06.035Z,4.52
2023-01-03T23:15:38.397Z,4.40
2023-01-03T23:18:10.686Z,4.56
2023-01-03T23:20:48.108Z,4.63
2023-01-03T23:23:20.421Z,4.64
2023-01-03T23:25:53.068Z,4.65
2023-01-03T23:28:25.514Z,4.72
2023-01-03T23:30:58.172Z,4.84
2023-01-03T23:33:31.420Z,4.92
2023-01-03T23:36:05.382Z,5.06
2023-01-03T23:38:37.861Z,5.17
2023-01-03T23:41:10.390Z,5.29
2023-01-03T23:43:43.555Z,5.42
2023-01-03T23:46:18.615Z,5.56
2023-01-03T23:48:53.989Z,5.70
2023-01-03T23:51:27.574Z,5.82
2023-01-03T23:53:59.997Z,5.90
2023-01-03T23:56:33.137Z,6.04
2023-01-03T23:59:05.604Z,6.06
